Karl Frank

Olheiro-Chefe - Borussia Mönchengladbach
6 Fev 2028
Domingo
Processo

Personalidade

Adaptabilidade (11) Ambição (13) Controvérsia (11) Lealdade (10) Pressão (3) Profissionalismo (19) Espírito Esportivo (5) Temperamento (11)

Perfil

Estilo de Treinamento Democrático
Licença Continental Pro
Determinação 15
Gestão de Pessoas 14
Motivação 14
Disciplina 7
Satisfação no Trabalho
100%
Fadiga
0%
Função Olheiro-Chefe
Salário 64.6K p/s
Contrato 14.03.2028

Desempenho

Comportamento Bom
Eficácia do Treinamento
51%
Desenvolvimento do Jogador
50%
Prevenção de Lesões
40%
Implementação Tática
55%

Eventos Recentes

Recomendou um alvo de transferência agora
Recomendou um alvo de transferência agora
Recomendou um alvo de transferência agora
Participou de uma reunião de recrutamento agora
Participou de uma reunião de recrutamento agora
Negociação de contrato iniciada agora
Negociação de contrato iniciada agora
Negociação de contrato iniciada agora

Monitorando agora

111
Jogador Clube Status Habilidade Confiança Observado Última observação Último voto
Evanilson Bournemouth Ativo 157 / 157 40% 3 31.01.2028 -
Gonzalo Fulham Ativo 155 / 146 40% 1 31.01.2028 -
Rafael Leão Galatasaray Ativo 160 / 162 40% 1 31.01.2028 -
Taty Castellanos West Ham United Ativo 145 / 151 40% 1 30.01.2028 -
Ermedin Demirović VfB Stuttgart Ativo 155 / 147 40% 1 30.01.2028 -
Ademola Lookman Atlético Madrid Ativo 167 / 155 40% 1 30.01.2028 -
Victor Osimhen Galatasaray Ativo 179 / 166 40% 2 27.01.2028 -
Abel Ruiz Girona Ativo 140 / 141 40% 1 27.01.2028 -
Rômulo RB Leipzig Ativo 154 / 149 40% 1 27.01.2028 -
Richarlison Stoke City Ativo 142 / 150 40% 1 26.01.2028 -
Kevin Schade Brentford Ativo 162 / 151 40% 1 26.01.2028 -
Mohamed-Ali Cho Hull City Ativo 143 / 145 40% 1 26.01.2028 -
Yannick Vertonghen KV Oostende Ativo 157 / 166 40% 1 25.01.2028 -
Rodrigo Muniz Fulham Ativo 137 / 140 40% 1 25.01.2028 -
Borja Mayoral Getafe Ativo 155 / 140 40% 2 24.01.2028 -
Giacomo Raspadori Atalanta Ativo 148 / 149 40% 2 24.01.2028 -
Maroan Sannadi Athletic Bilbao Ativo 148 / 136 40% 1 24.01.2028 -
Manfred Ugalde Spartak Moscow Perdido 151 / 133 40% 2 11.01.2028 -
Mateus Mané Liverpool Ativo 142 / 147 40% 1 06.01.2028 -
Jacob Peter Hödl Sturm Graz Perdido 130 / 131 40% 1 06.01.2028 -
Mateo Silvetti Inter Miami CF Perdido 117 / 121 40% 1 06.01.2028 -
Javi Puado Espanyol Ativo 145 / 155 40% 1 03.01.2028 -
Gabriel Jesus Wolverhampton Ativo 158 / 159 40% 1 02.01.2028 -
Evann Guessand Aston Villa Ativo 154 / 144 40% 1 02.01.2028 -
Hans Batshuayi Mouscron Ativo 153 / 156 40% 1 02.01.2028 -
Joseph Paintsil Feyenoord Ativo 130 / 130 67% 1 01.01.2028 Aprovar
Matheus Cunha Manchester United Ativo 160 / 160 40% 1 01.01.2028 -
Jonathan Burkardt Eintracht Frankfurt Ativo 145 / 149 40% 1 31.08.2027 -
Jonas Harder Basel Ativo 119 / 122 40% 1 30.08.2027 -
Mahmoud Yaqoob Al Ain Ativo 110 / 121 40% 1 30.08.2027 -
Luca Orellano Monterrey Ativo 143 / 138 40% 2 27.08.2027 -
Erik Botheim Malmo FF Ativo 119 / 120 40% 1 27.08.2027 -
Yuri Alberto Atlético Mineiro Ativo 134 / 139 40% 1 26.08.2027 -
Arnaud Kalimuendo Nottingham Forest Ativo 155 / 145 40% 1 26.08.2027 -
Andrews Tetteh Panathinaikos Ativo 128 / 140 40% 1 24.08.2027 -
Kelvin Yeboah Minnesota United FC Ativo 116 / 119 40% 2 23.08.2027 -
José Manuel López Palmeiras Ativo 124 / 135 40% 1 23.08.2027 -
Alejo Veliz Bahia Ativo 125 / 140 40% 1 22.08.2027 -
Iván Romero Levante Ativo 129 / 139 40% 1 22.08.2027 -
Maurits Kjærgaard Red Bull Salzburg Ativo 144 / 143 40% 2 21.08.2027 -
Mexx Meerdink AZ Ativo 135 / 137 40% 1 21.08.2027 -
Willem Geubbels Lecce Ativo 134 / 130 40% 5 18.08.2027 -
Konan N'Dri Lecce Ativo 138 / 131 40% 1 18.08.2027 -
Ollie Scarles West Ham United Ativo 135 / 137 40% 2 17.08.2027 -
Amín Molinas Libertad Ativo 101 / 121 40% 1 17.08.2027 -
Felipe Augusto Zenit Ativo 124 / 135 40% 2 15.08.2027 -
Gaetano Oristanio Venezia Ativo 133 / 137 40% 2 13.08.2027 -
David Romero Parma Ativo 129 / 132 40% 1 13.08.2027 -
Amine El Ouazzani Braga Ativo 129 / 129 40% 3 12.08.2027 -
Juanmi Latasa Valladolid Ativo 131 / 134 40% 2 12.08.2027 -
Jhon Durán Al-Nassr Ativo 154 / 143 40% 2 11.08.2027 -
Marcos Leonardo Ajax Ativo 144 / 145 40% 2 10.08.2027 -
Taisei Miyashiro Groningen Ativo 141 / 130 40% 3 08.08.2027 -
Figueiredo Alverca Ativo 136 / 135 40% 1 08.08.2027 -
Kaio Jorge Cruzeiro Ativo 138 / 134 40% 2 06.08.2027 -
Leon Grgić Red Bull Salzburg Ativo 119 / 129 40% 2 06.08.2027 -
Fotis Ioannidis Sporting CP Ativo 137 / 137 40% 1 04.08.2027 -
Josh Sargent Toronto FC Ativo 145 / 128 40% 1 02.08.2027 -
Gustavo Albarracín Alavés Ativo 124 / 123 40% 5 01.08.2027 -
Luca Langoni New England Revolution Ativo 124 / 125 40% 1 01.08.2027 -
Sanel Šaljić Austria Wien Ativo 117 / 122 40% 1 31.07.2027 -
Kauã Elias Shakhtar Ativo 141 / 148 40% 2 29.07.2027 -
Eguinaldo Shakhtar Ativo 119 / 146 40% 2 29.07.2027 -
Marquinhos Rubin Ativo 128 / 128 68% 1 26.07.2027 Aprovar
Alan Velasco Boca Juniors Ativo 120 / 137 40% 4 22.07.2027 -
Martim Cunha Porto Ativo 114 / 108 40% 2 22.07.2027 -
Noah Streit CF Montreal Ativo 107 / 116 40% 1 22.07.2027 -
André Miranda Porto Ativo 98 / 117 40% 1 19.07.2027 -
Dion Beljo Dinamo Zagreb Ativo 123 / 143 40% 1 17.07.2027 -
Ronan Kpakio West Bromwich Albion Ativo 124 / 133 40% 3 16.07.2027 -
Alphadjo Cissé Bologna Ativo 130 / 130 40% 1 14.07.2027 -
Isidro Pitta Bragantino Ativo 122 / 121 40% 1 13.07.2027 -
Danylo Sikan Anderlecht Ativo 131 / 133 40% 2 11.07.2027 -
Gonzalo Plata Dinamo Moscow Ativo 128 / 132 40% 4 10.07.2027 -
Esteban Lepaul Stade Rennais Ativo 146 / 138 40% 3 09.07.2027 -
Ayoub Oufkir AZ Ativo 130 / 140 40% 1 09.07.2027 -
Eliás Montiel Pachuca Ativo 141 / 141 40% 2 06.07.2027 -
Yusi Alavés Ativo 136 / 142 40% 1 06.07.2027 -
Lorenzo Colombo Genoa Ativo 130 / 142 40% 1 06.07.2027 -
Andrija Maksimović VfL Wolfsburg Ativo 123 / 126 40% 2 01.07.2027 -
Jan Virgili Club Brugge Ativo 127 / 135 40% 1 01.07.2027 -
Kamarni Ryan Pro Vercelli Ativo 91 / 102 40% 3 30.06.2027 -
Vasyl Bundash Metalurh Zaporizhzhia Ativo 113 / 98 40% 1 30.06.2027 -
Yorbe Vertessen Red Bull Salzburg Ativo 136 / 135 40% 1 24.06.2027 -
Paulo Cardoso Sporting CP Ativo 99 / 105 40% 1 23.06.2027 -
Dani Díaz Real Sociedad Ativo 106 / 119 40% 1 23.06.2027 -
Efraín Álvarez Tottenham Ativo 124 / 138 40% 1 23.06.2027 -
Herba Guirassy FC Nantes Ativo 117 / 131 40% 1 21.06.2027 -
Rafiu Durosinmi Racing Genk Ativo 124 / 130 40% 1 18.06.2027 -
Florián Monzón Atlas Ativo 114 / 133 40% 1 16.06.2027 -
Sorriso Famalicao Ativo 130 / 126 40% 1 16.06.2027 -
Honest Ahanor Udinese Ativo 135 / 142 40% 1 13.06.2027 -
Andile Furman Free State Stars Ativo 99 / 103 40% 3 11.06.2027 -
José Pachuca Puebla Ativo 111 / 107 40% 1 08.06.2027 -
Francis Amuzu Eintracht Frankfurt Ativo 129 / 129 67% 1 25.01.2027 Aprovar
Saïmon Bouabré Al-Hilal Ativo 120 / 126 40% 1 25.01.2027 Mais informações
Bobby Clark Derby County Ativo 131 / 133 40% 1 25.01.2027 Mais informações
Thomas Batshuayi Olympique Lyonnais Ativo 125 / 126 68% 1 18.01.2027 Aprovar
Roger Fernandes Al-Ittihad Ativo 143 / 139 40% 1 12.01.2027 -
Johannes Eggestein VfB Stuttgart Ativo 125 / 125 67% 1 11.01.2027 Aprovar
Matheus Gonçalves Al-Ahli Ativo 114 / 125 40% 1 11.01.2027 -
Jérôme Rodriguez Tours Ativo 118 / 120 40% 1 11.01.2027 -
Oscar Kabwit Luzern Ativo 104 / 115 40% 1 09.01.2027 -
Joaquin Seys Club Brugge Ativo 125 / 131 40% 1 06.01.2027 -
Kyriani Sabbe Club Brugge Ativo 123 / 121 40% 1 05.01.2027 -
Adriano Bertaccini Anderlecht Ativo 128 / 127 40% 1 01.01.2027 -
Christopher Trimmel Ativo 133 / 129 58% 1 24.08.2026 -
Haris Tabaković Red Bull Salzburg Ativo 136 / 133 40% 1 10.08.2026 -
Ibrahim Salah Basel Ativo 120 / 115 40% 1 10.08.2026 -
Mattia Zanotti Lugano Ativo 136 / 129 40% 1 03.08.2026 -
Angelo Gattermayer Wolfsberger AC Ativo 109 / 129 40% 1 01.08.2026 -